Time;durP1;ratioP1;P1;durP2;ratioP2;P2;SDS_P1;SDS_P2;PMS_P1;PMS_P2;Temp;Humidity;BMP_temperature;BMP_pressure;BME280_temperature;BME280_humidity;BME280_pressure;Samples;Min_cycle;Max_cycle;Signal;HPM_P1;HPM_P2
2021/01/01 00:00:11;;;;;;;4.25;0.90;;;20.70;99.90;;;;;;5035172;28;20115;-76
2021/01/01 00:02:39;;;;;;;7.10;1.02;;;20.70;99.90;;;;;;5032662;28;20029;-77
2021/01/01 00:05:07;;;;;;;5.57;0.90;;;20.70;99.90;;;;;;5033909;28;20052;-77
2021/01/01 00:07:35;;;;;;;8.48;0.73;;;20.80;99.90;;;;;;5033044;28;20037;-77
2021/01/01 00:10:03;;;;;;;6.60;1.25;;;20.80;99.90;;;;;;5035127;28;20123;-77
2021/01/01 00:12:30;;;;;;;5.97;1.00;;;21.00;99.90;;;;;;5031573;28;20107;-77
2021/01/01 00:14:58;;;;;;;7.47;1.42;;;20.90;99.90;;;;;;5069871;23;20053;-77
2021/01/01 00:17:25;;;;;;;9.43;1.40;;;20.90;99.90;;;;;;5035776;28;20114;-77
2021/01/01 00:19:53;;;;;;;9.50;1.02;;;20.80;99.90;;;;;;5035425;28;20028;-77
2021/01/01 00:22:20;;;;;;;6.35;0.82;;;20.80;99.90;;;;;;5032646;28;20032;-77
2021/01/01 00:24:47;;;;;;;6.18;0.90;;;20.70;99.90;;;;;;5034734;28;20072;-77
2021/01/01 00:27:15;;;;;;;8.35;1.58;;;20.60;99.90;;;;;;5031017;28;20025;-77
2021/01/01 00:29:42;;;;;;;7.07;0.88;;;20.60;99.90;;;;;;5034200;28;20116;-77
2021/01/01 00:32:09;;;;;;;7.20;1.20;;;20.50;99.90;;;;;;5032368;28;20028;-78
2021/01/01 00:34:37;;;;;;;10.80;1.65;;;20.50;99.90;;;;;;5034577;28;20021;-76
2021/01/01 00:37:04;;;;;;;9.30;1.90;;;20.50;99.90;;;;;;5032541;28;20053;-76
2021/01/01 00:39:31;;;;;;;8.43;0.75;;;20.40;99.90;;;;;;5034254;28;20040;-75
2021/01/01 00:41:59;;;;;;;10.10;1.10;;;20.30;99.90;;;;;;5023652;28;20028;-76
2021/01/01 00:44:26;;;;;;;9.55;1.08;;;20.40;99.90;;;;;;5034593;28;20025;-75
2021/01/01 00:46:53;;;;;;;7.97;0.80;;;20.60;99.90;;;;;;5010443;28;20053;-75
2021/01/01 00:49:20;;;;;;;6.95;1.08;;;20.70;99.90;;;;;;5031096;28;20382;-75
2021/01/01 00:51:48;;;;;;;6.47;0.70;;;20.50;99.90;;;;;;5031673;28;20387;-75
2021/01/01 00:54:15;;;;;;;13.98;2.03;;;20.40;99.90;;;;;;5016163;28;20101;-75
2021/01/01 00:56:42;;;;;;;11.35;1.10;;;20.40;99.90;;;;;;5029335;28;20018;-76
2021/01/01 00:59:10;;;;;;;7.70;1.08;;;20.40;99.90;;;;;;5033604;28;20025;-75
2021/01/01 01:01:37;;;;;;;7.57;0.70;;;20.40;99.90;;;;;;5014101;28;20025;-76
2021/01/01 01:04:05;;;;;;;11.38;1.55;;;20.50;99.90;;;;;;5030746;28;20496;-75
2021/01/01 01:06:32;;;;;;;8.43;0.77;;;20.60;99.90;;;;;;5031693;28;20025;-75
2021/01/01 01:08:59;;;;;;;9.70;1.50;;;20.70;99.90;;;;;;5033893;28;20034;-76
2021/01/01 01:11:28;;;;;;;5.65;1.08;;;20.80;99.90;;;;;;5032093;28;20437;-76
2021/01/01 01:13:56;;;;;;;5.50;0.80;;;20.80;99.90;;;;;;5054945;23;20489;-78
2021/01/01 01:16:26;;;;;;;8.43;0.63;;;20.70;99.90;;;;;;5082074;22;20102;-76
2021/01/01 01:18:54;;;;;;;8.95;0.82;;;20.60;99.90;;;;;;5054851;22;20080;-76
2021/01/01 01:21:22;;;;;;;6.22;0.50;;;20.60;99.90;;;;;;5051820;28;20116;-75
2021/01/01 01:23:51;;;;;;;8.25;0.98;;;20.50;99.90;;;;;;5060462;22;20086;-76
2021/01/01 01:26:18;;;;;;;8.00;1.35;;;20.50;99.90;;;;;;5052265;28;20485;-76
2021/01/01 01:28:46;;;;;;;5.18;0.68;;;20.50;99.90;;;;;;5051128;28;20033;-76
2021/01/01 01:31:13;;;;;;;7.03;1.15;;;20.50;99.90;;;;;;5069441;22;20049;-75
2021/01/01 01:33:40;;;;;;;9.75;0.63;;;20.50;99.90;;;;;;5051474;28;20029;-76
2021/01/01 01:36:08;;;;;;;8.65;0.82;;;20.60;99.90;;;;;;5069448;28;20017;-75
2021/01/01 01:38:35;;;;;;;7.13;1.00;;;20.50;99.90;;;;;;5062595;28;20024;-77
2021/01/01 01:41:03;;;;;;;8.82;0.90;;;20.50;99.90;;;;;;5050564;28;20075;-77
2021/01/01 01:43:30;;;;;;;6.13;0.90;;;20.50;99.90;;;;;;5034667;28;20116;-75
2021/01/01 01:45:58;;;;;;;13.48;1.45;;;20.50;99.90;;;;;;5053260;28;20039;-76
2021/01/01 01:48:37;;;;;;;9.93;1.35;;;20.50;99.90;;;;;;5058012;22;20057;-75
2021/01/01 01:51:06;;;;;;;4.35;1.05;;;20.60;99.90;;;;;;5050410;28;20029;-76
2021/01/01 01:53:39;;;;;;;10.38;2.60;;;20.70;99.90;;;;;;5050859;28;20029;-76
2021/01/01 01:56:07;;;;;;;9.48;1.02;;;20.70;99.90;;;;;;5052640;28;20056;-76
2021/01/01 01:58:35;;;;;;;12.82;1.10;;;20.70;99.90;;;;;;5050420;28;20086;-75
2021/01/01 02:01:04;;;;;;;8.23;1.48;;;20.70;99.90;;;;;;5052562;28;20025;-75
2021/01/01 02:03:33;;;;;;;6.30;0.73;;;20.60;99.90;;;;;;5050504;28;20068;-76
2021/01/01 02:06:01;;;;;;;9.32;0.82;;;20.60;99.90;;;;;;5050209;28;20055;-76
2021/01/01 02:08:29;;;;;;;4.22;0.60;;;20.70;99.90;;;;;;5050206;28;20114;-75
2021/01/01 02:10:58;;;;;;;7.57;0.70;;;20.80;99.90;;;;;;5052479;28;20100;-76
2021/01/01 02:13:26;;;;;;;7.18;0.93;;;20.80;99.90;;;;;;5050254;28;20029;-76
2021/01/01 02:15:54;;;;;;;10.25;1.50;;;20.80;99.90;;;;;;5052229;28;20031;-75
2021/01/01 02:18:41;;;;;;;6.00;0.80;;;20.80;99.90;;;;;;5050636;28;20033;-75
2021/01/01 02:21:12;;;;;;;6.38;1.00;;;20.80;99.90;;;;;;5069801;22;20057;-75
2021/01/01 02:23:40;;;;;;;7.88;1.77;;;20.80;99.90;;;;;;5071131;28;20028;-75
2021/01/01 02:26:07;;;;;;;10.65;0.95;;;20.80;99.90;;;;;;5071903;28;20024;-75
2021/01/01 02:28:35;;;;;;;2.80;0.40;;;20.80;99.90;;;;;;5059727;28;20024;-75
2021/01/01 02:31:02;;;;;;;11.70;2.30;;;20.90;99.90;;;;;;5034343;28;20025;-76
2021/01/01 02:33:29;;;;;;;7.57;1.20;;;21.00;99.90;;;;;;5049519;28;20473;-76
2021/01/01 02:35:57;;;;;;;6.97;0.80;;;21.00;99.90;;;;;;5050170;28;20075;-76
2021/01/01 02:38:24;;;;;;;8.55;0.85;;;21.00;99.90;;;;;;5049873;28;20029;-76
2021/01/01 02:40:52;;;;;;;7.07;0.88;;;21.00;99.90;;;;;;5051831;28;20028;-76
2021/01/01 02:43:20;;;;;;;8.45;1.23;;;21.10;99.90;;;;;;5048527;28;20051;-76
2021/01/01 02:45:48;;;;;;;6.35;0.98;;;21.10;99.90;;;;;;5049891;28;20029;-76
2021/01/01 02:48:20;;;;;;;5.60;0.55;;;21.10;99.90;;;;;;5050057;28;20119;-76
2021/01/01 02:50:48;;;;;;;8.15;1.48;;;21.10;99.90;;;;;;5052151;28;20390;-76
2021/01/01 02:53:15;;;;;;;9.48;0.82;;;21.10;99.90;;;;;;5031187;28;20064;-76
2021/01/01 02:55:42;;;;;;;7.85;0.70;;;21.00;99.90;;;;;;5050967;28;20032;-76
2021/01/01 02:58:10;;;;;;;6.32;0.63;;;20.90;99.90;;;;;;5049348;28;20028;-75
2021/01/01 03:00:39;;;;;;;7.10;1.20;;;20.80;99.90;;;;;;5050504;28;20501;-76
2021/01/01 03:03:07;;;;;;;5.45;1.05;;;20.80;99.90;;;;;;5048199;28;20025;-76
2021/01/01 03:05:36;;;;;;;4.22;0.75;;;20.90;99.90;;;;;;5049947;28;20029;-76
2021/01/01 03:08:04;;;;;;;11.38;1.67;;;20.90;99.90;;;;;;5049793;28;20045;-77
2021/01/01 03:10:31;;;;;;;9.13;1.02;;;20.90;99.90;;;;;;5051484;28;20021;-76
2021/01/01 03:12:59;;;;;;;7.10;0.73;;;20.90;99.90;;;;;;5049561;28;20041;-76
2021/01/01 03:15:26;;;;;;;6.57;0.65;;;20.80;99.90;;;;;;5050023;28;20044;-76
2021/01/01 03:17:53;;;;;;;7.22;0.95;;;20.80;99.90;;;;;;5049949;28;20055;-75
2021/01/01 03:20:20;;;;;;;8.93;0.75;;;20.70;99.90;;;;;;5048659;28;20043;-76
2021/01/01 03:25:14;;;;;;;4.28;0.70;;;20.70;99.90;;;;;;5069119;22;20136;-77
2021/01/01 03:27:41;;;;;;;6.97;0.47;;;20.70;99.90;;;;;;5050985;28;20044;-76
2021/01/01 03:30:10;;;;;;;4.75;0.47;;;20.60;99.90;;;;;;5051394;22;20141;-77
2021/01/01 03:32:39;;;;;;;9.48;0.70;;;20.60;99.90;;;;;;5072427;28;20090;-75
2021/01/01 03:35:07;;;;;;;8.48;0.80;;;20.50;99.90;;;;;;5073809;28;20036;-76
2021/01/01 03:37:36;;;;;;;6.80;0.90;;;20.50;99.90;;;;;;5073061;28;20031;-76
2021/01/01 03:40:05;;;;;;;7.93;0.60;;;20.50;99.90;;;;;;5072450;22;20083;-76
2021/01/01 03:42:32;;;;;;;6.15;1.13;;;20.50;99.90;;;;;;5072983;28;20033;-76
2021/01/01 03:45:00;;;;;;;5.57;0.70;;;20.50;99.90;;;;;;5073440;28;20059;-77
2021/01/01 03:47:27;;;;;;;10.10;0.80;;;20.40;99.90;;;;;;5051651;28;20043;-79
2021/01/01 03:49:55;;;;;;;7.00;0.88;;;20.30;99.90;;;;;;5050066;28;20389;-79
2021/01/01 03:52:22;;;;;;;8.75;1.25;;;20.30;99.90;;;;;;5053421;28;20108;-79
2021/01/01 03:54:49;;;;;;;6.32;0.95;;;20.30;99.90;;;;;;5060678;22;20021;-77
2021/01/01 03:57:16;;;;;;;8.13;1.08;;;20.30;99.90;;;;;;5066337;28;20028;-76
2021/01/01 03:59:44;;;;;;;6.88;0.60;;;20.30;99.90;;;;;;5056289;28;20027;-77
2021/01/01 04:02:11;;;;;;;8.02;0.80;;;20.40;99.90;;;;;;5038484;28;20126;-78
2021/01/01 04:04:38;;;;;;;11.35;2.15;;;20.30;99.90;;;;;;5046932;28;20363;-75
2021/01/01 04:07:05;;;;;;;9.13;0.75;;;20.30;99.90;;;;;;5050881;28;20037;-76
2021/01/01 04:09:33;;;;;;;6.15;0.60;;;20.30;99.90;;;;;;5055056;28;20024;-76
2021/01/01 04:12:00;;;;;;;4.60;0.70;;;20.30;99.90;;;;;;5049322;28;20068;-77
2021/01/01 04:14:27;;;;;;;5.55;1.00;;;20.30;99.90;;;;;;5054279;28;20090;-76
2021/01/01 04:16:55;;;;;;;5.18;0.85;;;20.30;99.90;;;;;;5050493;28;20028;-77
2021/01/01 04:19:22;;;;;;;6.75;0.65;;;20.30;99.90;;;;;;5052600;28;20033;-76
2021/01/01 04:21:50;;;;;;;7.63;0.82;;;20.40;99.90;;;;;;5051683;28;20070;-77
2021/01/01 04:24:18;;;;;;;6.53;0.93;;;20.30;99.90;;;;;;5052073;28;20029;-76
2021/01/01 04:26:46;;;;;;;5.53;0.65;;;20.40;99.90;;;;;;5052209;28;20047;-76
2021/01/01 04:29:13;;;;;;;6.65;1.25;;;20.40;99.90;;;;;;5070406;22;20510;-77
2021/01/01 04:31:41;;;;;;;5.25;0.73;;;20.40;99.90;;;;;;5052629;28;20040;-77
2021/01/01 04:34:09;;;;;;;8.18;0.60;;;20.30;99.90;;;;;;5052952;28;20035;-78
2021/01/01 04:36:37;;;;;;;9.27;1.25;;;20.30;99.90;;;;;;5051507;28;22225;-77
2021/01/01 04:39:08;;;;;;;10.50;0.88;;;20.30;99.90;;;;;;5035973;28;20053;-77
2021/01/01 04:41:36;;;;;;;5.85;0.57;;;20.20;99.90;;;;;;5051775;28;20029;-77
2021/01/01 04:44:06;;;;;;;9.40;1.05;;;20.20;99.90;;;;;;5052247;28;20013;-76
2021/01/01 04:46:34;;;;;;;7.00;1.02;;;20.20;99.90;;;;;;5048199;28;20044;-79
2021/01/01 04:49:02;;;;;;;5.88;0.50;;;20.20;99.90;;;;;;5041853;28;20056;-77
2021/01/01 04:51:29;;;;;;;5.78;1.25;;;20.20;99.90;;;;;;5030347;28;20056;-76
2021/01/01 04:53:57;;;;;;;8.25;0.82;;;20.20;99.90;;;;;;5053172;28;20029;-77
2021/01/01 04:56:25;;;;;;;5.10;0.85;;;20.20;99.90;;;;;;5052138;28;20036;-76
2021/01/01 04:58:54;;;;;;;6.13;1.02;;;20.30;99.90;;;;;;5043033;28;20090;-77
2021/01/01 05:01:25;;;;;;;6.63;0.50;;;20.30;99.90;;;;;;5052010;28;20056;-76
2021/01/01 05:03:52;;;;;;;7.28;0.90;;;20.40;99.90;;;;;;5047444;28;21059;-79
2021/01/01 05:06:40;;;;;;;6.88;1.33;;;20.30;99.90;;;;;;5019160;28;20424;-81
2021/01/01 05:09:08;;;;;;;9.13;0.93;;;20.30;99.90;;;;;;5035364;28;20060;-78
2021/01/01 05:11:36;;;;;;;7.35;0.75;;;20.20;99.90;;;;;;5046810;28;20462;-79
2021/01/01 05:14:07;;;;;;;11.27;1.65;;;20.20;99.90;;;;;;5051722;28;20033;-79
2021/01/01 05:16:36;;;;;;;9.10;1.30;;;20.30;99.90;;;;;;5048829;28;20551;-79
2021/01/01 05:19:13;;;;;;;4.72;0.50;;;20.30;99.90;;;;;;5047579;28;20037;-79
2021/01/01 05:21:41;;;;;;;8.13;1.40;;;20.20;99.90;;;;;;5044676;28;20037;-76
2021/01/01 05:24:15;;;;;;;6.95;0.73;;;20.20;99.90;;;;;;5051678;28;20061;-78
2021/01/01 05:26:48;;;;;;;9.40;0.50;;;20.20;99.90;;;;;;5050641;28;20087;-79
2021/01/01 05:29:21;;;;;;;7.07;0.70;;;20.20;99.90;;;;;;5058946;22;20049;-81
2021/01/01 05:31:49;;;;;;;10.35;1.02;;;20.10;99.90;;;;;;5046593;22;20067;-80
2021/01/01 05:34:20;;;;;;;6.80;0.65;;;20.20;99.90;;;;;;5072071;22;20041;-78
2021/01/01 05:39:19;;;;;;;5.00;0.70;;;20.20;99.90;;;;;;5072751;22;20051;-80
2021/01/01 05:41:48;;;;;;;6.72;0.82;;;20.10;99.90;;;;;;5051959;28;20028;-80
2021/01/01 05:44:21;;;;;;;13.65;1.17;;;20.10;99.90;;;;;;5073296;28;20036;-84
2021/01/01 05:46:56;;;;;;;6.20;1.10;;;20.10;99.90;;;;;;5041119;23;20049;-81
2021/01/01 05:49:25;;;;;;;11.65;1.60;;;20.10;99.90;;;;;;5050418;28;20497;-77
2021/01/01 05:52:16;;;;;;;6.03;0.70;;;20.10;99.90;;;;;;5044909;28;20060;-81
2021/01/01 05:54:58;;;;;;;7.65;1.00;;;20.10;99.90;;;;;;5033300;28;20032;-81
2021/01/01 05:57:37;;;;;;;4.50;0.38;;;20.10;99.90;;;;;;5039986;28;20028;-79
2021/01/01 06:00:10;;;;;;;5.80;0.88;;;20.00;99.90;;;;;;5051665;28;20537;-80
2021/01/01 06:02:42;;;;;;;7.30;1.17;;;20.10;99.90;;;;;;5057510;22;20172;-78
2021/01/01 06:05:11;;;;;;;6.97;1.17;;;20.10;99.90;;;;;;5050681;28;20486;-80
2021/01/01 06:07:43;;;;;;;5.95;0.80;;;20.00;99.90;;;;;;5048292;28;20037;-81
2021/01/01 06:10:13;;;;;;;6.57;1.50;;;20.00;99.90;;;;;;5027936;28;20022;-79
2021/01/01 06:12:40;;;;;;;4.60;1.15;;;20.00;99.90;;;;;;5025421;28;20018;-78
2021/01/01 06:15:09;;;;;;;7.53;0.68;;;20.00;99.90;;;;;;5045308;28;20030;-79
2021/01/01 06:17:50;;;;;;;5.35;0.80;;;20.00;99.90;;;;;;5027458;28;20072;-79
2021/01/01 06:20:22;;;;;;;6.97;0.90;;;19.90;99.90;;;;;;5039256;28;20022;-77
2021/01/01 06:23:05;;;;;;;7.65;1.40;;;19.90;99.90;;;;;;5030259;28;20445;-82
2021/01/01 06:25:35;;;;;;;8.93;1.30;;;19.80;99.90;;;;;;5026362;28;20029;-80
2021/01/01 06:28:03;;;;;;;4.18;0.75;;;19.80;99.90;;;;;;5021196;28;20041;-80
2021/01/01 06:30:31;;;;;;;8.15;0.90;;;19.80;99.90;;;;;;5028413;28;20025;-79
2021/01/01 06:32:58;;;;;;;6.40;0.52;;;19.80;99.90;;;;;;5028775;28;20041;-79
2021/01/01 06:35:26;;;;;;;9.98;1.08;;;19.80;99.90;;;;;;5026341;28;20239;-86
2021/01/01 06:37:57;;;;;;;10.55;1.27;;;19.80;99.90;;;;;;5022593;22;20053;-80
2021/01/01 06:40:24;;;;;;;5.10;0.80;;;19.80;99.90;;;;;;5009871;28;20482;-81
2021/01/01 06:42:59;;;;;;;5.47;0.93;;;19.80;99.90;;;;;;5008421;28;20033;-81
2021/01/01 06:45:45;;;;;;;6.43;1.48;;;19.90;99.90;;;;;;5007488;28;20026;-82
2021/01/01 06:48:23;;;;;;;4.25;0.93;;;19.80;99.90;;;;;;5007688;28;20621;-79
2021/01/01 06:50:54;;;;;;;7.78;0.85;;;19.90;99.90;;;;;;5005372;28;20034;-79
2021/01/01 06:53:29;;;;;;;8.38;0.73;;;19.90;99.90;;;;;;5006947;28;20037;-80
2021/01/01 06:56:10;;;;;;;4.35;0.65;;;19.90;99.90;;;;;;5005606;28;20368;-80
2021/01/01 06:58:39;;;;;;;5.03;0.98;;;19.90;99.90;;;;;;5006296;28;20109;-79
2021/01/01 07:01:16;;;;;;;5.22;0.65;;;19.80;99.90;;;;;;5010204;28;20056;-84
2021/01/01 07:03:44;;;;;;;6.65;0.50;;;19.90;99.90;;;;;;5001799;28;20018;-81
2021/01/01 07:06:12;;;;;;;8.93;1.60;;;19.80;99.90;;;;;;4995511;28;20164;-82
2021/01/01 07:08:42;;;;;;;6.15;0.70;;;19.70;99.90;;;;;;5009285;28;20133;-84
2021/01/01 07:11:09;;;;;;;4.95;0.75;;;19.60;99.90;;;;;;5010080;28;20026;-83
2021/01/01 07:13:48;;;;;;;8.52;1.00;;;19.50;99.90;;;;;;5005339;28;20108;-84
2021/01/01 07:16:18;;;;;;;3.97;0.50;;;19.40;99.90;;;;;;5005876;28;20399;-83
2021/01/01 07:18:46;;;;;;;5.35;0.50;;;19.20;99.90;;;;;;5006715;28;20011;-82
2021/01/01 07:21:15;;;;;;;4.93;1.02;;;19.10;99.90;;;;;;5007936;28;20073;-82
2021/01/01 07:23:44;;;;;;;6.28;1.08;;;18.90;99.90;;;;;;5009641;28;20026;-82
2021/01/01 07:26:12;;;;;;;5.47;1.52;;;18.80;99.90;;;;;;5008769;28;20022;-81
2021/01/01 07:28:42;;;;;;;7.53;0.63;;;18.70;99.90;;;;;;5007919;28;20108;-81
2021/01/01 07:31:12;;;;;;;6.57;0.70;;;18.60;99.90;;;;;;5011007;28;20037;-81
2021/01/01 07:33:40;;;;;;;4.85;0.80;;;18.60;99.90;;;;;;5011369;28;20045;-82
2021/01/01 07:36:09;;;;;;;12.05;0.88;;;18.50;99.90;;;;;;5011088;28;20053;-82
2021/01/01 07:38:38;;;;;;;5.85;1.55;;;18.40;99.90;;;;;;5064541;22;20414;-82
2021/01/01 07:41:06;;;;;;;3.28;0.65;;;18.30;99.90;;;;;;5050834;22;20532;-82
2021/01/01 07:43:34;;;;;;;8.27;0.88;;;18.30;99.90;;;;;;5028689;28;20036;-82
2021/01/01 07:46:09;;;;;;;11.32;2.85;;;18.30;99.90;;;;;;5053689;22;20053;-82
2021/01/01 07:48:38;;;;;;;10.45;4.57;;;18.30;99.90;;;;;;5046146;28;20056;-82
2021/01/01 07:51:10;;;;;;;8.00;5.25;;;18.30;99.90;;;;;;5048319;28;20025;-84
2021/01/01 07:53:38;;;;;;;10.95;2.10;;;18.20;99.90;;;;;;5061922;22;20425;-83
2021/01/01 07:56:08;;;;;;;6.55;0.95;;;18.20;99.90;;;;;;5042241;28;20064;-83
2021/01/01 07:58:37;;;;;;;7.75;1.00;;;18.10;99.90;;;;;;5036527;28;20026;-82
2021/01/01 08:01:07;;;;;;;2.92;0.70;;;18.10;99.90;;;;;;5028391;28;20029;-82
2021/01/01 08:03:39;;;;;;;9.75;1.13;;;18.10;99.90;;;;;;5045894;28;20028;-85
2021/01/01 08:06:10;;;;;;;7.93;1.65;;;18.10;99.90;;;;;;5045700;28;20029;-85
2021/01/01 08:08:38;;;;;;;7.50;1.00;;;18.10;99.90;;;;;;5028909;28;20192;-85
2021/01/01 08:11:07;;;;;;;12.95;1.42;;;18.10;99.90;;;;;;5063465;22;20076;-86
2021/01/01 08:13:35;;;;;;;17.70;1.70;;;18.00;99.90;;;;;;5070008;28;20040;-86
2021/01/01 08:16:16;;;;;;;7.63;1.17;;;18.00;99.90;;;;;;5071179;28;20025;-86
2021/01/01 08:18:44;;;;;;;9.07;1.85;;;18.00;99.90;;;;;;5069800;28;20032;-85
2021/01/01 08:21:11;;;;;;;8.23;1.92;;;18.00;99.90;;;;;;5039117;28;20545;-85
2021/01/01 08:23:59;;;;;;;9.68;0.85;;;18.00;99.90;;;;;;5050055;28;20063;-85
2021/01/01 08:26:27;;;;;;;7.15;1.20;;;18.00;99.90;;;;;;5049448;28;20112;-86
2021/01/01 08:28:57;;;;;;;10.70;1.73;;;17.90;99.90;;;;;;5052055;28;20496;-85
2021/01/01 08:31:24;;;;;;;15.25;1.23;;;17.90;99.90;;;;;;5050378;28;20025;-85
2021/01/01 08:33:55;;;;;;;9.73;1.40;;;17.90;99.90;;;;;;5049343;28;20108;-85
2021/01/01 08:36:34;;;;;;;8.73;1.33;;;17.90;99.90;;;;;;5054192;28;20641;-85
2021/01/01 08:39:17;;;;;;;9.50;1.35;;;17.80;99.90;;;;;;5059254;28;20035;-84
2021/01/01 08:41:47;;;;;;;8.68;1.27;;;17.90;99.90;;;;;;5074536;28;20099;-85
2021/01/01 08:44:16;;;;;;;8.20;1.90;;;17.80;99.90;;;;;;5084709;22;20059;-85
2021/01/01 08:46:44;;;;;;;9.00;0.93;;;17.80;99.90;;;;;;5055278;28;20075;-84
2021/01/01 08:49:19;;;;;;;10.80;1.50;;;17.80;99.90;;;;;;5055424;28;20025;-85
2021/01/01 08:51:48;;;;;;;4.95;0.65;;;17.70;99.90;;;;;;5037472;28;20453;-86
2021/01/01 08:54:26;;;;;;;6.00;1.55;;;17.70;99.90;;;;;;5017522;28;20028;-85
2021/01/01 08:56:58;;;;;;;9.02;0.70;;;17.60;99.90;;;;;;5054413;28;20076;-85
2021/01/01 08:59:27;;;;;;;8.90;1.27;;;17.50;99.90;;;;;;5022366;28;20563;-85
2021/01/01 09:01:55;;;;;;;5.65;0.52;;;17.50;99.90;;;;;;5034746;28;20029;-84
2021/01/01 09:04:27;;;;;;;6.80;1.15;;;17.50;99.90;;;;;;5019464;28;20040;-84
2021/01/01 09:07:05;;;;;;;4.70;0.82;;;17.40;99.90;;;;;;5044978;28;20048;-84
2021/01/01 09:09:34;;;;;;;7.13;0.75;;;17.40;99.90;;;;;;5016756;28;20470;-83
2021/01/01 09:12:16;;;;;;;5.07;0.70;;;17.40;99.90;;;;;;5016657;28;20056;-85
2021/01/01 09:14:53;;;;;;;6.43;0.82;;;17.40;99.90;;;;;;5040028;28;20027;-85
2021/01/01 09:17:22;;;;;;;7.30;1.15;;;17.40;99.90;;;;;;5054546;28;20136;-85
2021/01/01 09:20:05;;;;;;;5.13;0.88;;;17.30;99.90;;;;;;5035364;28;20167;-85
2021/01/01 09:22:37;;;;;;;9.45;2.25;;;17.20;99.90;;;;;;5016365;28;20033;-85
2021/01/01 09:25:26;;;;;;;6.45;0.85;;;17.30;99.90;;;;;;5052845;28;20068;-85
2021/01/01 09:27:54;;;;;;;8.40;1.15;;;17.20;99.90;;;;;;5048607;28;20044;-85
2021/01/01 09:30:24;;;;;;;7.38;1.55;;;17.20;99.90;;;;;;5034908;28;20292;-85
2021/01/01 09:32:59;;;;;;;5.85;0.95;;;17.20;99.90;;;;;;5034073;28;20033;-85
2021/01/01 09:35:27;;;;;;;8.90;0.80;;;17.20;99.90;;;;;;5026314;28;20057;-86
2021/01/01 09:38:00;;;;;;;6.93;0.80;;;17.20;99.90;;;;;;5034357;28;20147;-84
2021/01/01 09:40:29;;;;;;;5.80;0.70;;;17.30;99.90;;;;;;5042440;28;20062;-85
2021/01/01 09:43:00;;;;;;;7.38;1.45;;;17.40;99.90;;;;;;5054014;28;20053;-84
2021/01/01 09:45:27;;;;;;;6.97;0.88;;;17.40;99.90;;;;;;5072623;22;20049;-85
2021/01/01 09:47:55;;;;;;;4.97;0.75;;;17.40;99.90;;;;;;5069853;22;20045;-84
2021/01/01 09:50:22;;;;;;;3.78;0.55;;;17.50;99.90;;;;;;5052734;28;20107;-85
2021/01/01 09:52:49;;;;;;;8.63;0.95;;;17.60;99.90;;;;;;5069396;22;20057;-85
2021/01/01 09:55:19;;;;;;;8.75;1.10;;;17.60;99.90;;;;;;5053667;28;20720;-84
2021/01/01 09:57:47;;;;;;;8.35;1.17;;;17.50;99.90;;;;;;5035649;28;20152;-84
2021/01/01 10:00:19;;;;;;;8.60;1.00;;;17.50;99.90;;;;;;5053865;28;20442;-85
2021/01/01 10:02:46;;;;;;;7.07;1.38;;;17.50;99.90;;;;;;5074988;22;20045;-83
2021/01/01 10:05:14;;;;;;;10.55;1.63;;;17.50;99.90;;;;;;5056981;28;20025;-84
2021/01/01 10:07:41;;;;;;;10.13;1.05;;;17.50;99.90;;;;;;5045744;28;20473;-84
2021/01/01 10:10:09;;;;;;;5.25;1.25;;;17.50;99.90;;;;;;5070431;28;20051;-83
2021/01/01 10:12:37;;;;;;;9.57;1.08;;;17.60;99.90;;;;;;5066605;28;20025;-83
2021/01/01 10:15:05;;;;;;;8.00;3.10;;;17.60;99.90;;;;;;5057014;28;20033;-83
2021/01/01 10:17:32;;;;;;;8.45;2.70;;;17.70;99.90;;;;;;5063954;22;20047;-83
2021/01/01 10:20:00;;;;;;;8.38;3.63;;;17.70;99.90;;;;;;5044720;28;20037;-83
2021/01/01 10:22:27;;;;;;;11.90;3.00;;;17.70;99.90;;;;;;5048463;28;20029;-84
2021/01/01 10:24:55;;;;;;;8.88;2.60;;;17.80;99.90;;;;;;5009492;28;20029;-83
2021/01/01 10:27:22;;;;;;;17.55;3.55;;;17.80;99.90;;;;;;5032096;28;20126;-84
2021/01/01 10:29:49;;;;;;;8.25;2.30;;;17.70;99.90;;;;;;5041362;28;20021;-83
2021/01/01 10:32:17;;;;;;;9.25;1.83;;;17.60;99.90;;;;;;5051861;28;20021;-84
2021/01/01 10:34:45;;;;;;;6.10;1.85;;;17.60;99.90;;;;;;5046418;28;20033;-84
2021/01/01 10:37:13;;;;;;;8.10;2.13;;;17.70;99.90;;;;;;5041779;28;20032;-81
2021/01/01 10:39:41;;;;;;;13.95;4.22;;;17.70;99.90;;;;;;5044140;28;20032;-80
2021/01/01 10:42:11;;;;;;;13.27;2.90;;;17.70;99.90;;;;;;5034429;28;20050;-81
2021/01/01 10:44:38;;;;;;;9.85;2.40;;;17.60;99.90;;;;;;5029458;28;20020;-81
2021/01/01 10:47:05;;;;;;;6.47;1.70;;;17.60;99.90;;;;;;5022705;28;20044;-80
2021/01/01 10:49:34;;;;;;;7.05;1.63;;;17.60;99.90;;;;;;5036297;28;20462;-81
2021/01/01 10:52:03;;;;;;;5.72;1.83;;;17.50;99.90;;;;;;5050314;22;20045;-81
2021/01/01 10:54:31;;;;;;;12.40;2.80;;;17.60;99.90;;;;;;5051241;28;20021;-80
2021/01/01 10:56:58;;;;;;;14.15;3.88;;;17.60;99.90;;;;;;5052052;28;20021;-80
2021/01/01 10:59:26;;;;;;;11.00;3.28;;;17.60;99.90;;;;;;5033494;28;20044;-80
2021/01/01 11:01:56;;;;;;;6.38;1.00;;;17.50;99.90;;;;;;5031870;28;20028;-80
2021/01/01 11:04:24;;;;;;;8.73;1.55;;;17.50;99.90;;;;;;5036207;28;20022;-79
2021/01/01 11:06:52;;;;;;;10.88;1.20;;;17.50;99.90;;;;;;5047482;28;20578;-80
2021/01/01 11:09:20;;;;;;;12.98;1.77;;;17.50;99.90;;;;;;5029555;28;20517;-80
2021/01/01 11:11:48;;;;;;;10.85;1.48;;;17.60;99.90;;;;;;5034437;28;20062;-80
2021/01/01 11:14:24;;;;;;;3.88;1.35;;;17.60;99.90;;;;;;5029096;28;20040;-80
2021/01/01 12:26:03;;;;;;;7.22;1.05;;;17.30;99.90;;;;;;5049113;22;20063;-83
2021/01/01 12:28:30;;;;;;;3.90;0.82;;;17.30;99.90;;;;;;5050757;28;20036;-83
2021/01/01 12:30:59;;;;;;;9.20;1.00;;;17.20;99.90;;;;;;5051463;28;20036;-83
2021/01/01 12:33:27;;;;;;;9.85;1.50;;;17.20;99.90;;;;;;5057279;28;20075;-82
2021/01/01 12:35:55;;;;;;;5.80;1.00;;;17.00;99.90;;;;;;5045281;28;20074;-83
2021/01/01 12:38:22;;;;;;;8.27;1.08;;;16.90;99.90;;;;;;5053301;28;20017;-83
2021/01/01 12:40:49;;;;;;;10.68;1.75;;;16.90;99.90;;;;;;5071275;28;20021;-83
2021/01/01 12:43:17;;;;;;;6.22;1.17;;;16.90;99.90;;;;;;5058399;28;20044;-83
2021/01/01 12:45:45;;;;;;;8.05;1.20;;;16.90;99.90;;;;;;5060324;28;20040;-83
2021/01/01 12:48:13;;;;;;;5.53;1.00;;;16.90;99.90;;;;;;5052789;28;20097;-83
2021/01/01 12:50:40;;;;;;;5.18;0.80;;;16.80;99.90;;;;;;5052980;28;20025;-83
2021/01/01 12:53:07;;;;;;;7.13;1.77;;;16.80;99.90;;;;;;5052419;28;20456;-83
2021/01/01 12:55:34;;;;;;;9.13;1.33;;;16.80;99.90;;;;;;5052841;28;20039;-84
2021/01/01 12:58:04;;;;;;;7.95;1.25;;;16.80;99.90;;;;;;5063060;22;21593;-83
2021/01/01 13:00:31;;;;;;;6.30;1.00;;;16.80;99.90;;;;;;5049770;28;20104;-83
2021/01/01 13:02:59;;;;;;;6.93;1.17;;;16.90;99.90;;;;;;5034546;28;20051;-83
2021/01/01 13:05:28;;;;;;;8.32;0.70;;;16.80;99.90;;;;;;5044951;28;20021;-83
2021/01/01 13:07:55;;;;;;;6.32;1.48;;;16.90;99.90;;;;;;5032080;28;20037;-83
2021/01/01 13:10:22;;;;;;;4.75;0.80;;;16.90;99.90;;;;;;5033057;28;20024;-83
2021/01/01 13:12:52;;;;;;;11.10;1.08;;;17.00;99.90;;;;;;5031035;28;20052;-83
2021/01/01 13:15:19;;;;;;;8.65;1.42;;;17.00;99.90;;;;;;5032124;28;20540;-83
2021/01/01 13:17:46;;;;;;;6.68;1.08;;;17.10;99.90;;;;;;5013701;28;20038;-83
2021/01/01 13:20:15;;;;;;;7.40;1.50;;;17.10;99.90;;;;;;5032431;28;20025;-83
2021/01/01 13:22:42;;;;;;;8.95;1.25;;;17.10;99.90;;;;;;5035272;28;20105;-83
2021/01/01 13:25:11;;;;;;;5.53;0.47;;;17.10;99.90;;;;;;5031146;28;20048;-82
2021/01/01 13:27:38;;;;;;;10.10;1.08;;;17.10;99.90;;;;;;5032642;28;20045;-82
2021/01/01 13:30:06;;;;;;;4.78;0.90;;;17.10;99.90;;;;;;5030983;28;20030;-82
2021/01/01 13:32:33;;;;;;;6.32;1.05;;;17.10;99.90;;;;;;5029171;28;20497;-82
2021/01/01 13:35:02;;;;;;;5.90;1.00;;;17.20;99.90;;;;;;5032429;28;20479;-82
2021/01/01 13:37:31;;;;;;;8.35;2.00;;;17.20;99.90;;;;;;5032266;28;20025;-82
2021/01/01 13:40:02;;;;;;;6.55;0.80;;;17.10;99.90;;;;;;5030748;28;20025;-83
2021/01/01 13:42:29;;;;;;;7.25;1.10;;;17.10;99.90;;;;;;5031605;28;20026;-82
2021/01/01 13:44:56;;;;;;;3.95;0.80;;;17.00;99.90;;;;;;5012882;28;20053;-83
2021/01/01 13:47:24;;;;;;;11.95;1.55;;;17.00;99.90;;;;;;5006874;28;20402;-82
2021/01/01 13:49:53;;;;;;;6.40;1.00;;;17.00;99.90;;;;;;5028560;28;20506;-83
2021/01/01 13:52:20;;;;;;;6.22;1.48;;;17.10;99.90;;;;;;5014259;28;20079;-83
2021/01/01 13:54:47;;;;;;;7.15;0.88;;;17.10;99.90;;;;;;5032599;28;20033;-83
2021/01/01 13:57:15;;;;;;;7.18;0.82;;;17.10;99.90;;;;;;5031269;28;20049;-83
2021/01/01 13:59:42;;;;;;;6.90;0.90;;;17.00;99.90;;;;;;5069300;22;20064;-83
2021/01/01 14:02:09;;;;;;;6.53;0.82;;;17.00;99.90;;;;;;5068005;22;20055;-82
2021/01/01 14:04:36;;;;;;;8.50;1.75;;;16.90;99.90;;;;;;5055528;28;20036;-83
2021/01/01 14:07:04;;;;;;;6.43;0.68;;;16.90;99.90;;;;;;5068663;22;20048;-82
2021/01/01 14:09:31;;;;;;;5.03;0.65;;;16.70;99.90;;;;;;5025585;28;20126;-83